Time;durP1;ratioP1;P1;durP2;ratioP2;P2;SDS_P1;SDS_P2;PMS_P1;PMS_P2;Temp;Humidity;BMP_temperature;BMP_pressure;BME280_temperature;BME280_humidity;BME280_pressure;Samples;Min_cycle;Max_cycle;Signal;HPM_P1;HPM_P2
2022/04/29 00:03:38;;;;;;;13.21;5.45;;;;;;;8.35;52.14;100771.44;372795;141;879056;-54
2022/04/29 00:04:40;;;;;;;10.81;4.95;;;;;;;8.21;52.34;100776.38;362296;144;857149;-54
2022/04/29 00:05:43;;;;;;;9.55;5.05;;;;;;;8.18;52.79;100776.34;361137;147;858611;-54
2022/04/29 00:06:45;;;;;;;11.25;5.87;;;;;;;;;;363374;144;858893;-54
2022/04/29 00:07:47;;;;;;;15.54;7.40;;;;;;;;;;362491;146;864884;-54
2022/04/29 00:08:48;;;;;;;17.31;7.66;;;;;;;;;;364289;147;857226;-55
2022/04/29 00:09:50;;;;;;;14.14;7.33;;;;;;;;;;362814;145;857101;-54
2022/04/29 00:10:51;;;;;;;19.36;8.86;;;;;;;;;;355346;147;857243;-54
2022/04/29 00:11:54;;;;;;;26.67;9.69;;;;;;;;;;351694;151;864990;-54
2022/04/29 00:12:56;;;;;;;19.41;8.64;;;;;;;;;;361576;145;857164;-55
2022/04/29 00:13:58;;;;;;;27.71;9.81;;;;;;;;;;364294;145;866468;-54
2022/04/29 00:14:59;;;;;;;24.16;9.45;;;;;;;;;;361281;147;859122;-54
2022/04/29 00:16:01;;;;;;;23.74;9.57;;;;;;;;;;362175;145;858214;-54
2022/04/29 00:17:04;;;;;;;21.01;9.63;;;;;;;;;;362341;144;864783;-54
2022/04/29 00:18:06;;;;;;;23.64;10.54;;;;;;;;;;361701;144;857230;-55
2022/04/29 00:19:07;;;;;;;24.58;9.90;;;;;;;;;;362238;147;859561;-54
2022/04/29 00:20:09;;;;;;;23.25;9.99;;;;;;;;;;362497;147;866587;-54
2022/04/29 00:21:11;;;;;;;22.12;9.63;;;;;;;;;;362004;145;857735;-54
2022/04/29 00:22:13;;;;;;;24.05;10.22;;;;;;;;;;364498;145;859401;-54
2022/04/29 00:23:14;;;;;;;25.24;10.07;;;;;;;;;;362505;146;857325;-54
2022/04/29 00:24:16;;;;;;;22.56;9.51;;;;;;;;;;362709;146;857860;-55
2022/04/29 00:25:18;;;;;;;24.96;10.24;;;;;;;;;;363006;146;864706;-55
2022/04/29 00:26:19;;;;;;;28.88;10.34;;;;;;;;;;364705;146;857208;-54
2022/04/29 00:27:21;;;;;;;31.30;12.31;;;;;;;;;;363755;145;864859;-55
2022/04/29 00:28:23;;;;;;;33.17;13.06;;;;;;;;;;362491;146;857229;-55
2022/04/29 00:29:24;;;;;;;31.45;13.36;;;;;;;;;;365239;145;857186;-56
2022/04/29 00:30:26;;;;;;;26.07;11.04;;;;;;;;;;364719;144;857285;-53
2022/04/29 00:31:28;;;;;;;24.98;9.49;;;;;;;;;;364864;146;864726;-55
2022/04/29 00:32:30;;;;;;;25.08;9.75;;;;;;;;;;363090;146;857050;-54
2022/04/29 00:33:31;;;;;;;27.78;10.17;;;;;;;;;;362921;148;858733;-54
2022/04/29 00:34:33;;;;;;;24.03;10.02;;;;;;;;;;362779;146;859605;-54
2022/04/29 00:35:34;;;;;;;19.19;9.55;;;;;;;;;;364948;146;865481;-53
2022/04/29 00:36:36;;;;;;;24.04;9.12;;;;;;;;;;363094;146;866259;-54
2022/04/29 00:37:49;;;;;;;22.41;9.56;;;;;;;;;;362916;146;860415;-55
2022/04/29 00:38:50;;;;;;;25.18;10.08;;;;;;;;;;365353;146;859195;-55
2022/04/29 00:39:52;;;;;;;26.59;10.33;;;;;;;;;;364264;145;857146;-56
2022/04/29 00:40:54;;;;;;;22.98;10.56;;;;;;;;;;364690;146;858806;-55
2022/04/29 00:41:55;;;;;;;28.09;10.86;;;;;;;;;;363495;144;858524;-54
2022/04/29 00:42:57;;;;;;;21.15;10.66;;;;;;;;;;364741;145;865275;-55
2022/04/29 00:43:59;;;;;;;25.56;11.00;;;;;;;;;;363361;146;857080;-54
2022/04/29 00:45:01;;;;;;;30.77;11.96;;;;;;;;;;362726;146;866554;-55
2022/04/29 00:46:04;;;;;;;33.08;12.61;;;;;;;;;;364046;146;857332;-54
2022/04/29 00:47:07;;;;;;;22.80;10.46;;;;;;;;;;363315;146;866698;-55
2022/04/29 00:48:09;;;;;;;28.09;11.40;;;;;;;;;;363079;146;857699;-55
2022/04/29 00:49:11;;;;;;;32.90;12.29;;;;;;;;;;362655;146;857296;-55
2022/04/29 00:50:14;;;;;;;25.48;10.93;;;;;;;;;;362953;146;859436;-56
2022/04/29 00:51:15;;;;;;;28.69;11.94;;;;;;;;;;363201;146;857339;-56
2022/04/29 00:52:17;;;;;;;33.04;13.22;;;;;;;;;;364239;146;857068;-54
2022/04/29 00:53:19;;;;;;;31.03;11.77;;;;;;;;;;364601;146;858743;-54
2022/04/29 00:54:25;;;;;;;24.07;10.79;;;;;;;;;;363160;146;857293;-54
2022/04/29 00:55:27;;;;;;;28.64;10.98;;;;;;;;;;363027;146;857402;-54
2022/04/29 00:56:29;;;;;;;26.51;11.01;;;;;;;;;;363656;146;859039;-54
2022/04/29 00:57:33;;;;;;;25.83;10.70;;;;;;;;;;363312;146;857125;-54
2022/04/29 00:58:36;;;;;;;26.64;10.79;;;;;;;;;;363462;146;857223;-54
2022/04/29 00:59:39;;;;;;;24.21;9.83;;;;;;;;;;362854;146;857332;-54
2022/04/29 01:00:40;;;;;;;24.05;9.08;;;;;;;;;;362959;146;857205;-54
2022/04/29 01:01:45;;;;;;;24.43;9.24;;;;;;;;;;364558;146;857306;-55
2022/04/29 01:02:48;;;;;;;20.95;8.88;;;;;;;;;;363834;146;859112;-54
2022/04/29 01:03:50;;;;;;;22.02;8.38;;;;;;;;;;364312;145;858913;-55
2022/04/29 01:05:05;;;;;;;22.01;8.66;;;;;;;;;;364188;145;857748;-55
2022/04/29 01:06:07;;;;;;;16.75;8.51;;;;;;;;;;364249;145;864922;-54
2022/04/29 01:07:08;;;;;;;23.69;9.96;;;;;;;;;;365033;145;859240;-55
2022/04/29 01:08:10;;;;;;;21.18;9.48;;;;;;;;;;366052;145;857341;-56
2022/04/29 01:09:11;;;;;;;20.15;8.64;;;;;;;;;;363966;144;857524;-56
2022/04/29 01:10:14;;;;;;;25.66;10.64;;;;;;;;;;364601;145;856401;-56
2022/04/29 01:11:17;;;;;;;27.67;12.53;;;;;;;;;;363545;145;866427;-56
2022/04/29 01:12:18;;;;;;;28.42;11.47;;;;;;;;;;363300;144;864841;-55
2022/04/29 01:13:20;;;;;;;30.89;12.33;;;;;;;;;;365486;145;857116;-56
2022/04/29 01:14:21;;;;;;;35.22;12.21;;;;;;;;;;365340;145;864888;-54
2022/04/29 01:15:23;;;;;;;29.64;11.62;;;;;;;;;;365106;145;857128;-55
2022/04/29 01:16:24;;;;;;;32.11;13.92;;;;;;;;;;364353;145;858940;-55
2022/04/29 01:17:26;;;;;;;41.06;15.75;;;;;;;;;;363386;145;865843;-54
2022/04/29 01:18:28;;;;;;;27.17;13.02;;;;;;;;;;363357;144;858981;-54
2022/04/29 01:19:30;;;;;;;24.97;11.49;;;;;;;;;;365200;145;864881;-54
2022/04/29 01:20:32;;;;;;;24.87;10.32;;;;;;;;;;363313;145;859080;-57
2022/04/29 01:21:34;;;;;;;29.27;10.89;;;;;;;;;;364539;145;857231;-55
2022/04/29 01:22:36;;;;;;;26.62;11.31;;;;;;;;;;363732;145;857760;-55
2022/04/29 01:23:37;;;;;;;33.80;14.93;;;;;;;;;;363045;148;865235;-55
2022/04/29 01:24:39;;;;;;;39.03;14.58;;;;;;;;;;363333;145;858529;-55
2022/04/29 01:25:40;;;;;;;38.43;15.49;;;;;;;;;;364172;145;864848;-53
2022/04/29 01:26:42;;;;;;;44.21;17.39;;;;;;;;;;363831;145;857156;-54
2022/04/29 01:27:44;;;;;;;44.31;15.82;;;;;;;;;;365701;145;864721;-55
2022/04/29 01:28:46;;;;;;;33.73;12.73;;;;;;;;;;363102;148;857250;-55
2022/04/29 01:29:47;;;;;;;45.35;18.10;;;;;;;;;;366303;145;857255;-55
2022/04/29 01:30:51;;;;;;;53.72;18.39;;;;;;;;;;363722;145;860688;-55
2022/04/29 01:31:52;;;;;;;46.49;17.64;;;;;;;;;;362998;147;865743;-55
2022/04/29 01:32:54;;;;;;;48.56;17.74;;;;;;;;;;363486;144;857168;-56
2022/04/29 01:33:55;;;;;;;37.04;16.79;;;;;;;;;;363230;145;860787;-55
2022/04/29 01:34:57;;;;;;;43.76;16.87;;;;;;;;;;363755;145;858551;-56
2022/04/29 01:35:58;;;;;;;45.37;18.56;;;;;;;;;;363560;145;859055;-54
2022/04/29 01:37:00;;;;;;;45.12;17.26;;;;;;;;;;367087;145;859139;-55
2022/04/29 01:38:01;;;;;;;52.60;18.72;;;;;;;;;;363528;145;866059;-54
2022/04/29 01:39:03;;;;;;;46.34;18.84;;;;;;;;;;364248;144;866700;-54
2022/04/29 01:40:05;;;;;;;49.87;17.64;;;;;;;;;;363163;145;865751;-55
2022/04/29 01:41:07;;;;;;;45.87;18.25;;;;;;;;;;364477;145;866723;-54
2022/04/29 01:42:09;;;;;;;48.76;17.73;;;;;;;;;;363574;145;859044;-54
2022/04/29 01:43:10;;;;;;;55.38;18.54;;;;;;;;;;364172;145;858539;-54
2022/04/29 01:44:12;;;;;;;40.49;16.90;;;;;;;;;;365739;145;857736;-55
2022/04/29 01:45:13;;;;;;;47.04;17.29;;;;;;;;;;364501;145;857218;-55
2022/04/29 01:46:17;;;;;;;49.79;17.92;;;;;;;;;;363994;145;857623;-55
2022/04/29 01:47:18;;;;;;;46.60;17.54;;;;;;;;;;363337;145;865393;-55
2022/04/29 01:48:21;;;;;;;42.54;17.01;;;;;;;;;;363329;148;857067;-55
2022/04/29 01:49:22;;;;;;;45.81;16.36;;;;;;;;;;351553;151;858913;-57
2022/04/29 01:50:26;;;;;;;47.96;16.75;;;;;;;;;;354908;150;856532;-56
2022/04/29 01:51:27;;;;;;;45.26;16.92;;;;;;;;;;354357;150;856119;-54
2022/04/29 01:52:29;;;;;;;42.94;17.88;;;;;;;;;;354855;148;856036;-55
2022/04/29 01:53:30;;;;;;;42.64;15.59;;;;;;;;;;355850;151;858142;-55
2022/04/29 01:54:32;;;;;;;40.79;15.61;;;;;;;;;;354261;150;863597;-54
2022/04/29 01:55:33;;;;;;;39.34;16.26;;;;;;;;;;355258;150;856074;-54
2022/04/29 01:56:35;;;;;;;40.03;15.64;;;;;;;;;;354928;150;856070;-54
2022/04/29 01:57:36;;;;;;;39.88;16.11;;;;;;;;;;353431;151;863342;-55
2022/04/29 01:58:38;;;;;;;38.80;16.12;;;;;;;;;;354698;150;863661;-55
2022/04/29 01:59:40;;;;;;;41.00;16.41;;;;;;;;;;355306;150;856178;-55
2022/04/29 02:00:41;;;;;;;44.34;17.07;;;;;;;;;;354407;148;863738;-54
2022/04/29 02:03:40;;;;;;;35.59;16.16;;;;;;;6.61;58.71;100765.73;371861;142;881317;-55
2022/04/29 02:04:42;;;;;;;58.45;20.29;;;;;;;6.52;58.70;100763.86;365345;146;857099;-55
2022/04/29 02:05:44;;;;;;;42.34;16.11;;;;;;;6.52;58.64;100771.57;365871;147;858948;-54
2022/04/29 02:06:46;;;;;;;45.69;17.81;;;;;;;6.53;58.61;100769.85;363111;147;866630;-56
2022/04/29 02:07:47;;;;;;;43.64;16.74;;;;;;;6.53;58.64;100767.28;365785;147;857170;-54
2022/04/29 02:08:49;;;;;;;37.19;16.37;;;;;;;6.52;58.58;100766.42;364837;146;864669;-54
2022/04/29 02:09:51;;;;;;;53.84;17.89;;;;;;;6.51;58.60;100764.69;365172;147;865100;-54
2022/04/29 02:10:53;;;;;;;46.55;17.21;;;;;;;6.51;58.58;100766.37;364570;145;865707;-54
2022/04/29 02:12:06;;;;;;;37.94;16.58;;;;;;;6.49;58.57;100763.78;364816;147;857334;-54
2022/04/29 02:13:08;;;;;;;41.31;16.85;;;;;;;6.46;58.60;100762.84;364421;147;865196;-55
2022/04/29 02:14:10;;;;;;;43.93;16.41;;;;;;;6.40;58.73;100766.16;365357;147;857423;-55
2022/04/29 02:15:12;;;;;;;44.22;16.89;;;;;;;6.34;58.86;100760.84;364941;147;858434;-55
2022/04/29 02:16:15;;;;;;;39.36;16.67;;;;;;;6.29;58.99;100771.05;365830;145;866405;-55
2022/04/29 02:17:16;;;;;;;38.51;16.01;;;;;;;6.26;59.14;100763.26;365180;147;858743;-54
2022/04/29 02:18:19;;;;;;;45.51;16.21;;;;;;;6.23;59.25;100764.04;363917;147;865943;-55
2022/04/29 02:19:22;;;;;;;43.51;17.54;;;;;;;6.21;59.32;100765.71;364529;147;857456;-55
2022/04/29 02:20:24;;;;;;;47.66;16.95;;;;;;;6.22;59.44;100766.59;365220;147;858030;-54
2022/04/29 02:21:26;;;;;;;42.69;17.45;;;;;;;6.23;59.37;100768.33;365579;147;858426;-55
2022/04/29 02:22:28;;;;;;;39.11;16.78;;;;;;;6.25;59.34;100764.95;356872;146;857226;-53
2022/04/29 02:23:30;;;;;;;35.93;14.84;;;;;;;6.27;59.31;100770.14;358533;150;866088;-54
2022/04/29 02:24:32;;;;;;;41.64;16.75;;;;;;;6.30;59.22;100772.78;358982;148;865082;-54
2022/04/29 02:25:33;;;;;;;42.58;15.89;;;;;;;6.31;59.16;100771.95;357904;147;864824;-54
2022/04/29 02:26:35;;;;;;;42.15;15.64;;;;;;;6.31;58.97;100774.52;357387;147;857677;-54
2022/04/29 02:27:39;;;;;;;49.45;19.38;;;;;;;6.28;59.13;100771.88;358870;150;864728;-54
2022/04/29 02:28:40;;;;;;;48.60;20.16;;;;;;;6.27;59.12;100770.14;357125;149;859034;-55
2022/04/29 02:29:42;;;;;;;56.57;20.35;;;;;;;6.26;58.94;100773.55;358210;149;857676;-56
2022/04/29 02:30:44;;;;;;;52.15;20.72;;;;;;;;;;358808;148;857734;-54
2022/04/29 02:31:46;;;;;;;51.57;19.87;;;;;;;;;;360527;147;865349;-54
2022/04/29 02:32:47;;;;;;;48.68;21.40;;;;;;;;;;357395;148;860085;-55
2022/04/29 02:33:49;;;;;;;52.96;21.71;;;;;;;;;;356402;149;858563;-55
2022/04/29 02:34:50;;;;;;;51.21;21.04;;;;;;;;;;358606;149;857709;-54
2022/04/29 02:35:52;;;;;;;45.61;18.67;;;;;;;;;;357709;149;856197;-54
2022/04/29 02:36:53;;;;;;;49.51;19.69;;;;;;;;;;356945;148;856102;-54
2022/04/29 02:37:55;;;;;;;41.08;17.81;;;;;;;;;;359256;147;856099;-54
2022/04/29 02:38:57;;;;;;;50.44;17.55;;;;;;;;;;358862;147;856115;-55
2022/04/29 02:39:58;;;;;;;40.08;17.34;;;;;;;;;;358695;149;856122;-55
2022/04/29 02:41:00;;;;;;;42.28;16.33;;;;;;;;;;357022;149;856170;-54
2022/04/29 02:43:52;;;;;;;39.69;15.18;;;;;;;6.34;61.00;100789.14;369985;142;881602;-54
2022/04/29 02:44:53;;;;;;;38.19;14.51;;;;;;;6.24;60.88;100796.64;361453;145;859833;-54
2022/04/29 02:45:55;;;;;;;40.15;15.49;;;;;;;6.22;60.97;100795.73;364120;145;857137;-54
2022/04/29 02:47:09;;;;;;;39.46;14.11;;;;;;;6.17;61.38;100792.19;363711;146;864981;-55
2022/04/29 02:48:11;;;;;;;34.33;13.82;;;;;;;6.13;61.46;100788.69;361732;145;859023;-55
2022/04/29 02:49:13;;;;;;;40.61;14.49;;;;;;;6.12;61.59;100794.66;363542;145;858258;-54
2022/04/29 02:50:16;;;;;;;40.04;15.38;;;;;;;6.13;61.62;100795.52;360011;146;857928;-55
2022/04/29 02:51:18;;;;;;;40.31;15.55;;;;;;;6.14;61.62;100794.69;362297;145;857736;-55
2022/04/29 02:52:20;;;;;;;37.26;14.85;;;;;;;6.11;61.71;100800.64;364597;146;865230;-55
2022/04/29 02:53:21;;;;;;;37.97;13.56;;;;;;;6.10;61.82;100790.30;363243;147;866498;-55
2022/04/29 02:54:23;;;;;;;32.81;14.01;;;;;;;;;;360379;144;858594;-55
2022/04/29 02:55:24;;;;;;;32.59;13.86;;;;;;;;;;360372;145;866422;-55
2022/04/29 02:56:26;;;;;;;24.70;12.09;;;;;;;;;;363503;147;865641;-55
2022/04/29 02:57:28;;;;;;;29.86;12.74;;;;;;;;;;363104;145;865378;-55
2022/04/29 02:58:29;;;;;;;31.14;11.86;;;;;;;;;;361913;147;865030;-55
2022/04/29 02:59:31;;;;;;;31.23;11.75;;;;;;;;;;364163;145;864982;-54
2022/04/29 03:00:32;;;;;;;28.31;11.17;;;;;;;;;;363413;147;857247;-54
2022/04/29 03:01:34;;;;;;;28.99;11.68;;;;;;;;;;361716;147;865023;-54
2022/04/29 03:02:36;;;;;;;26.46;11.56;;;;;;;;;;358497;147;857728;-54
2022/04/29 03:03:38;;;;;;;30.82;12.45;;;;;;;;;;358077;148;865725;-58
2022/04/29 03:04:39;;;;;;;34.88;13.04;;;;;;;;;;358242;150;857375;-55
2022/04/29 03:05:41;;;;;;;22.64;11.09;;;;;;;;;;355693;147;866869;-55
2022/04/29 03:06:42;;;;;;;28.95;11.41;;;;;;;;;;357757;148;857032;-55
2022/04/29 03:07:44;;;;;;;26.62;11.49;;;;;;;;;;358884;147;866563;-54
2022/04/29 03:08:46;;;;;;;30.95;12.79;;;;;;;;;;360242;147;858039;-53
2022/04/29 03:09:48;;;;;;;24.79;10.98;;;;;;;;;;358481;148;864950;-56
2022/04/29 03:10:49;;;;;;;27.64;10.72;;;;;;;;;;358403;150;866406;-54
2022/04/29 03:11:51;;;;;;;26.41;11.44;;;;;;;;;;358149;147;857152;-54
2022/04/29 03:12:52;;;;;;;22.96;10.46;;;;;;;;;;357598;147;857174;-54
2022/04/29 03:13:54;;;;;;;26.18;10.55;;;;;;;;;;357625;148;857214;-54
2022/04/29 03:15:15;;;;;;;24.83;10.91;;;;;;;;;;358002;147;858904;-54
2022/04/29 03:15:59;;;;;;;23.94;9.98;;;;;;;;;;356447;147;859749;-54
2022/04/29 03:17:00;;;;;;;24.37;10.83;;;;;;;;;;357860;147;857205;-53
2022/04/29 03:19:23;;;;;;;26.98;10.77;;;;;;;;;;359835;148;857196;-55
2022/04/29 03:20:24;;;;;;;24.87;10.10;;;;;;;;;;359372;147;857186;-54
2022/04/29 03:21:26;;;;;;;28.15;10.99;;;;;;;;;;359407;147;857169;-55
2022/04/29 03:22:28;;;;;;;29.82;11.60;;;;;;;;;;358737;149;857218;-54
2022/04/29 03:23:29;;;;;;;33.55;12.23;;;;;;;;;;359506;149;857255;-53
2022/04/29 03:24:34;;;;;;;38.56;13.44;;;;;;;;;;357850;147;857435;-54
2022/04/29 03:25:35;;;;;;;38.92;15.50;;;;;;;;;;355789;147;857256;-55
2022/04/29 03:26:37;;;;;;;36.05;13.93;;;;;;;;;;357463;147;859111;-55
2022/04/29 03:27:38;;;;;;;48.61;16.99;;;;;;;;;;359017;148;857346;-55
2022/04/29 03:28:40;;;;;;;49.78;16.04;;;;;;;;;;357912;149;857218;-55
2022/04/29 03:29:41;;;;;;;52.30;18.96;;;;;;;;;;351346;150;857210;-55
2022/04/29 03:30:43;;;;;;;48.25;18.84;;;;;;;;;;359283;147;858770;-54
2022/04/29 03:31:45;;;;;;;45.45;17.69;;;;;;;;;;358105;150;865503;-55
2022/04/29 03:32:53;;;;;;;44.66;16.59;;;;;;;;;;358881;147;866119;-54
2022/04/29 03:33:54;;;;;;;49.26;17.44;;;;;;;;;;356316;147;858906;-54
2022/04/29 03:34:56;;;;;;;42.99;17.01;;;;;;;;;;358519;147;858495;-55
2022/04/29 03:35:58;;;;;;;40.39;16.05;;;;;;;;;;358693;148;866618;-54
2022/04/29 03:36:59;;;;;;;53.57;17.44;;;;;;;;;;357558;147;864985;-55
2022/04/29 03:38:01;;;;;;;51.37;18.10;;;;;;;;;;358676;149;867421;-54
2022/04/29 03:39:03;;;;;;;44.26;16.76;;;;;;;;;;357380;150;857191;-54
2022/04/29 03:40:06;;;;;;;42.05;16.36;;;;;;;;;;359081;150;858094;-56
2022/04/29 03:41:07;;;;;;;36.96;15.66;;;;;;;;;;359115;149;857540;-54
2022/04/29 03:42:10;;;;;;;41.44;15.14;;;;;;;;;;356967;147;859854;-55
2022/04/29 03:43:14;;;;;;;46.79;15.99;;;;;;;;;;357727;148;857405;-54
2022/04/29 03:44:16;;;;;;;53.99;18.13;;;;;;;;;;357353;147;857851;-53
2022/04/29 03:45:18;;;;;;;47.24;18.00;;;;;;;;;;357320;149;857579;-55
2022/04/29 03:46:20;;;;;;;56.06;21.21;;;;;;;;;;357649;147;864901;-54
2022/04/29 03:47:22;;;;;;;55.06;20.67;;;;;;;;;;357786;149;857651;-54
2022/04/29 03:48:23;;;;;;;74.97;25.03;;;;;;;;;;357790;147;857559;-54
2022/04/29 03:49:37;;;;;;;70.24;25.37;;;;;;;;;;357503;147;864947;-55
2022/04/29 03:50:38;;;;;;;70.94;24.36;;;;;;;;;;356727;150;857181;-55
2022/04/29 03:51:40;;;;;;;86.21;28.56;;;;;;;;;;358723;147;857132;-55
2022/04/29 03:52:46;;;;;;;84.36;27.04;;;;;;;;;;358319;149;865737;-56
2022/04/29 03:53:48;;;;;;;87.21;28.67;;;;;;;;;;354040;147;859367;-55
2022/04/29 03:54:50;;;;;;;90.74;29.31;;;;;;;;;;358457;150;858371;-55
2022/04/29 03:55:51;;;;;;;95.31;31.76;;;;;;;;;;358743;147;864921;-55
2022/04/29 03:56:53;;;;;;;94.44;30.85;;;;;;;;;;355860;148;857191;-55
2022/04/29 03:57:55;;;;;;;92.76;31.51;;;;;;;;;;357467;147;865178;-54
2022/04/29 03:58:56;;;;;;;100.55;32.51;;;;;;;;;;359235;147;857242;-56
2022/04/29 03:59:58;;;;;;;100.73;33.31;;;;;;;;;;360113;147;857290;-57
2022/04/29 04:01:00;;;;;;;94.04;32.44;;;;;;;;;;358928;147;857115;-57
2022/04/29 04:02:01;;;;;;;94.85;31.88;;;;;;;;;;359231;149;866487;-55
2022/04/29 04:03:05;;;;;;;98.51;35.31;;;;;;;;;;358858;147;866291;-54
2022/04/29 04:04:07;;;;;;;110.31;38.09;;;;;;;;;;357955;149;865876;-55
2022/04/29 04:05:09;;;;;;;115.06;39.26;;;;;;;;;;357336;148;857863;-55
2022/04/29 04:07:32;;;;;;;117.18;40.23;;;;;;;;;;354626;148;857700;-55
2022/04/29 04:08:35;;;;;;;145.47;44.86;;;;;;;;;;358733;147;857904;-54
2022/04/29 04:09:39;;;;;;;132.60;45.99;;;;;;;;;;355881;149;857247;-54
2022/04/29 04:10:41;;;;;;;163.81;51.73;;;;;;;;;;357284;147;858554;-55
2022/04/29 04:11:43;;;;;;;146.48;50.42;;;;;;;;;;358202;149;866495;-55
2022/04/29 04:12:52;;;;;;;168.97;50.67;;;;;;;;;;358859;148;865938;-55
2022/04/29 04:13:53;;;;;;;171.88;51.52;;;;;;;;;;358666;148;857758;-54
2022/04/29 04:14:56;;;;;;;152.39;51.59;;;;;;;;;;357006;147;859786;-54
2022/04/29 04:15:58;;;;;;;151.57;51.11;;;;;;;;;;358461;147;857216;-54
2022/04/29 04:16:59;;;;;;;143.80;49.19;;;;;;;;;;357066;147;857320;-53
2022/04/29 04:18:02;;;;;;;148.24;46.09;;;;;;;;;;357224;148;864802;-54
2022/04/29 04:19:03;;;;;;;136.15;45.15;;;;;;;;;;358672;147;864847;-54
2022/04/29 04:20:06;;;;;;;129.99;45.04;;;;;;;;;;355273;150;857191;-55
2022/04/29 04:21:07;;;;;;;138.65;44.25;;;;;;;;;;358922;149;865203;-57
2022/04/29 04:22:10;;;;;;;127.56;44.39;;;;;;;;;;355386;147;857338;-54
2022/04/29 04:23:11;;;;;;;115.95;41.67;;;;;;;;;;356349;150;857828;-54
2022/04/29 04:24:13;;;;;;;141.16;44.70;;;;;;;;;;358135;147;859068;-54
2022/04/29 04:25:14;;;;;;;113.13;40.56;;;;;;;;;;359031;150;856943;-54
2022/04/29 04:26:16;;;;;;;120.87;39.53;;;;;;;;;;358984;148;857335;-54
2022/04/29 04:27:18;;;;;;;114.80;38.07;;;;;;;;;;353967;148;866465;-56
2022/04/29 04:28:19;;;;;;;114.76;38.39;;;;;;;;;;357067;149;858118;-55
2022/04/29 04:29:21;;;;;;;110.81;35.36;;;;;;;;;;357797;147;858032;-54
2022/04/29 04:30:22;;;;;;;91.69;34.07;;;;;;;;;;358066;147;860052;-54
2022/04/29 04:31:24;;;;;;;85.25;31.44;;;;;;;;;;357741;148;865865;-54
2022/04/29 04:32:26;;;;;;;84.56;30.84;;;;;;;;;;357162;147;859900;-57
2022/04/29 04:33:27;;;;;;;84.34;29.76;;;;;;;;;;355566;147;858809;-55
2022/04/29 04:35:49;;;;;;;71.76;28.06;;;;;;;;;;357960;149;860426;-55
2022/04/29 04:36:52;;;;;;;74.30;28.16;;;;;;;;;;356732;147;859423;-55
2022/04/29 04:37:54;;;;;;;74.80;25.43;;;;;;;;;;357300;149;864468;-56
2022/04/29 04:38:56;;;;;;;75.94;26.66;;;;;;;;;;359138;148;857264;-56
2022/04/29 04:39:58;;;;;;;71.05;25.79;;;;;;;;;;358710;148;859963;-56
2022/04/29 04:41:00;;;;;;;53.59;21.68;;;;;;;;;;357227;147;859425;-54
2022/04/29 04:42:02;;;;;;;50.89;20.41;;;;;;;;;;356638;149;866426;-55
2022/04/29 04:43:03;;;;;;;58.78;21.41;;;;;;;;;;357717;147;858823;-55
2022/04/29 04:44:05;;;;;;;49.30;19.16;;;;;;;;;;358321;148;857348;-55
2022/04/29 04:45:07;;;;;;;46.20;18.11;;;;;;;;;;355146;149;857523;-55
2022/04/29 04:46:10;;;;;;;54.36;18.69;;;;;;;;;;352507;151;859152;-55
2022/04/29 04:47:11;;;;;;;46.85;18.87;;;;;;;;;;353705;149;857278;-55
2022/04/29 04:48:13;;;;;;;41.56;15.38;;;;;;;;;;354504;149;857424;-55
2022/04/29 04:49:15;;;;;;;40.83;15.34;;;;;;;;;;354507;149;858407;-55
2022/04/29 04:50:19;;;;;;;41.72;15.34;;;;;;;;;;354115;149;861343;-55
2022/04/29 04:51:20;;;;;;;36.51;13.19;;;;;;;;;;354089;149;857630;-55
2022/04/29 04:52:22;;;;;;;35.09;12.96;;;;;;;;;;352976;149;865921;-54
2022/04/29 04:53:24;;;;;;;39.77;13.91;;;;;;;;;;354514;149;857250;-55
2022/04/29 04:54:26;;;;;;;33.73;13.89;;;;;;;;;;354040;149;857225;-55
2022/04/29 04:55:27;;;;;;;37.11;13.68;;;;;;;;;;355917;149;857199;-55
2022/04/29 04:56:29;;;;;;;26.56;11.50;;;;;;;;;;353614;149;857252;-55
2022/04/29 04:57:30;;;;;;;30.05;11.33;;;;;;;;;;354252;149;864751;-56
2022/04/29 04:58:34;;;;;;;33.24;12.76;;;;;;;;;;355020;149;866645;-56
2022/04/29 04:59:36;;;;;;;36.13;13.38;;;;;;;;;;354748;150;866193;-55
2022/04/29 05:00:39;;;;;;;26.74;11.71;;;;;;;;;;354522;149;857271;-55
2022/04/29 05:01:40;;;;;;;32.53;11.48;;;;;;;;;;353928;149;864840;-55
2022/04/29 05:02:42;;;;;;;35.34;12.17;;;;;;;;;;354411;149;857126;-55
2022/04/29 05:03:43;;;;;;;29.10;11.12;;;;;;;;;;354270;151;864998;-55
2022/04/29 05:04:45;;;;;;;27.25;12.04;;;;;;;;;;354539;149;857318;-55
2022/04/29 05:05:47;;;;;;;30.37;10.82;;;;;;;;;;354078;149;864754;-55
2022/04/29 05:06:48;;;;;;;27.59;10.89;;;;;;;;;;353482;149;857328;-55
2022/04/29 05:07:50;;;;;;;24.40;9.77;;;;;;;;;;355207;149;857196;-55
2022/04/29 05:08:51;;;;;;;24.04;9.14;;;;;;;;;;352616;151;857615;-55
2022/04/29 05:09:52;;;;;;;22.09;9.44;;;;;;;;;;355154;149;858781;-55
2022/04/29 05:10:54;;;;;;;26.49;9.87;;;;;;;;;;355242;149;859475;-55
2022/04/29 05:11:56;;;;;;;24.24;11.24;;;;;;;;;;352775;151;865764;-55
2022/04/29 05:12:57;;;;;;;22.07;9.36;;;;;;;;;;354822;149;858079;-54
2022/04/29 05:13:58;;;;;;;28.23;9.84;;;;;;;;;;353289;151;857862;-54
2022/04/29 05:15:01;;;;;;;24.37;9.34;;;;;;;;;;354608;150;859277;-54
2022/04/29 05:16:03;;;;;;;18.75;8.36;;;;;;;;;;355498;149;865851;-54
2022/04/29 05:17:05;;;;;;;26.52;8.89;;;;;;;;;;355214;150;858007;-55
2022/04/29 05:18:06;;;;;;;19.46;7.93;;;;;;;;;;354538;149;858235;-55
2022/04/29 05:19:08;;;;;;;18.95;7.84;;;;;;;;;;353909;149;857737;-55
2022/04/29 05:20:11;;;;;;;16.10;7.21;;;;;;;;;;354630;149;857992;-54
2022/04/29 05:21:13;;;;;;;18.96;8.06;;;;;;;;;;353722;150;858842;-56
2022/04/29 05:22:14;;;;;;;21.00;7.26;;;;;;;;;;354228;149;859006;-56
2022/04/29 05:23:16;;;;;;;17.42;7.49;;;;;;;;;;354605;151;866732;-56
2022/04/29 05:24:17;;;;;;;17.94;7.00;;;;;;;;;;355464;149;859070;-56
2022/04/29 05:25:19;;;;;;;11.74;6.31;;;;;;;;;;354541;151;865278;-56
2022/04/29 05:26:20;;;;;;;12.19;6.64;;;;;;;;;;355281;149;857209;-56
2022/04/29 05:27:22;;;;;;;19.37;6.91;;;;;;;;;;355216;149;857625;-56
2022/04/29 05:28:24;;;;;;;13.74;7.09;;;;;;;;;;352123;150;864855;-55
2022/04/29 05:29:25;;;;;;;14.00;5.96;;;;;;;;;;353743;149;866706;-56
2022/04/29 05:30:27;;;;;;;14.59;5.96;;;;;;;;;;353153;149;857193;-55
2022/04/29 05:31:29;;;;;;;14.42;5.60;;;;;;;;;;353638;150;866740;-55
2022/04/29 05:32:30;;;;;;;12.61;5.64;;;;;;;;;;353597;151;858869;-55
2022/04/29 05:33:32;;;;;;;9.75;5.06;;;;;;;;;;348996;152;859450;-55
2022/04/29 05:34:34;;;;;;;10.46;4.70;;;;;;;;;;348370;152;858676;-54
2022/04/29 05:35:36;;;;;;;10.91;4.75;;;;;;;;;;353084;149;858286;-55
2022/04/29 05:36:38;;;;;;;9.71;4.90;;;;;;;;;;353765;150;865768;-54
2022/04/29 05:37:40;;;;;;;10.00;4.68;;;;;;;;;;347621;151;865018;-54
2022/04/29 05:42:43;;;;;;;6.02;3.48;;;;;;;;;;353214;149;857167;-54
2022/04/29 05:43:44;;;;;;;8.64;3.49;;;;;;;;;;353303;149;864719;-54
2022/04/29 05:44:46;;;;;;;8.36;3.52;;;;;;;;;;355204;150;861218;-55
2022/04/29 05:45:48;;;;;;;8.30;3.31;;;;;;;;;;356053;150;858013;-55
2022/04/29 05:46:50;;;;;;;12.25;3.60;;;;;;;;;;355844;150;857640;-55
2022/04/29 05:47:51;;;;;;;7.46;3.03;;;;;;;;;;356670;148;857119;-55
2022/04/29 05:48:53;;;;;;;7.35;3.17;;;;;;;;;;360403;148;860814;-55
2022/04/29 05:49:54;;;;;;;8.61;3.18;;;;;;;;;;358559;148;859827;-55
2022/04/29 05:50:56;;;;;;;6.32;3.13;;;;;;;;;;356865;149;866072;-55
2022/04/29 05:52:01;;;;;;;5.88;2.94;;;;;;;;;;350120;151;866084;-55
2022/04/29 05:53:02;;;;;;;8.04;3.01;;;;;;;;;;347972;149;860007;-55
2022/04/29 05:54:04;;;;;;;5.73;3.03;;;;;;;;;;355269;148;864817;-55
2022/04/29 05:55:06;;;;;;;10.99;3.38;;;;;;;;;;355941;150;858965;-56
2022/04/29 05:56:08;;;;;;;7.33;2.79;;;;;;;;;;355850;150;864892;-55
2022/04/29 05:57:09;;;;;;;7.74;3.03;;;;;;;;;;354998;150;859394;-56
2022/04/29 05:58:11;;;;;;;9.41;3.37;;;;;;;;;;355727;148;857387;-55
2022/04/29 05:59:12;;;;;;;6.42;3.19;;;;;;;;;;354962;148;857299;-55
2022/04/29 06:00:15;;;;;;;6.73;2.93;;;;;;;;;;355761;148;856364;-55
2022/04/29 06:01:17;;;;;;;4.37;2.46;;;;;;;;;;355564;150;857239;-55